This is the latest recevied weather packets stored in our database for station/object OK2VOP-6. If no packets are shown the sender has not sent any weather packets the latest 10 day(s).
| Time | Temp. | Humidity | Pressure | Rain* | Wind** | Luminosity | Snow |
|---|---|---|---|---|---|---|---|
| 1788512007 | 26.11° C | 27% | - | 0 mm | - | - | - |
| 1788510804 | 25.56° C | 27% | - | 0 mm | - | - | - |
| 1788509597 | 25° C | 30% | - | 0 mm | - | - | - |
| 1788508392 | 24.44° C | 31% | - | 0 mm | - | - | - |
| 1788507187 | 23.33° C | 34% | - | 0 mm | - | - | - |
| 1788505982 | 21.67° C | 40% | - | 0 mm | - | - | - |
| 1788504777 | 21.11° C | 42% | - | 0 mm | - | - | - |
| 1788503573 | 20° C | 43% | - | 0 mm | - | - | - |
| 1788502368 | 18.89° C | 46% | - | 0 mm | - | - | - |
| 1788501163 | 18.89° C | 47% | - | 0 mm | - | - | - |
| 1788499958 | 18.33° C | 48% | - | 0 mm | - | - | - |
| 1788498753 | 17.78° C | 49% | - | 0 mm | - | - | - |
| 1788497549 | 17.78° C | 48% | - | 0 mm | - | - | - |
| 1788496344 | 17.78° C | 47% | - | 0 mm | - | - | - |
| 1788495139 | 17.78° C | 46% | - | 0 mm | - | - | - |
| 1788493934 | 17.78° C | 45% | - | 0 mm | - | - | - |
| 1788492729 | 18.33° C | 45% | - | 0 mm | - | - | - |
| 1788491525 | 18.33° C | 45% | - | 0 mm | - | - | - |
| 1788490320 | 18.33° C | 44% | - | 0 mm | - | - | - |
| 1788489115 | 18.33° C | 44% | - | 0 mm | - | - | - |
| 1788487912 | 18.33° C | 43% | - | 0 mm | - | - | - |
| 1788486705 | 18.33° C | 43% | - | 0 mm | - | - | - |
| 1788485501 | 18.33° C | 43% | - | 0 mm | - | - | - |
| 1788484296 | 18.33° C | 43% | - | 0 mm | - | - | - |
| 1788483093 | 18.33° C | 43% | - | 0 mm | - | - | - |
* Rain latest hour (hover to see other rain measurements)
** Current wind speed in m/s (hover to see current wind gust speed)